sensor_id;sensor_type;location;lat;lon;timestamp;pressure;altitude;pressure_sealevel;temperature;humidity
57442;BME280;43284;47.042;15.498;2022-07-05T00:00:58;97361.97;;;17.90;99.04
57442;BME280;43284;47.042;15.498;2022-07-05T00:03:26;97367.03;;;17.93;99.00
57442;BME280;43284;47.042;15.498;2022-07-05T00:05:55;97364.63;;;18.01;98.74
57442;BME280;43284;47.042;15.498;2022-07-05T00:08:23;97355.75;;;18.02;99.19
57442;BME280;43284;47.042;15.498;2022-07-05T00:10:51;97325.94;;;18.00;98.17
57442;BME280;43284;47.042;15.498;2022-07-05T00:13:19;97338.03;;;17.91;97.21
57442;BME280;43284;47.042;15.498;2022-07-05T00:15:46;97328.09;;;17.95;97.47
57442;BME280;43284;47.042;15.498;2022-07-05T00:18:14;97335.16;;;17.95;97.72
57442;BME280;43284;47.042;15.498;2022-07-05T00:20:41;97333.38;;;17.95;97.29
57442;BME280;43284;47.042;15.498;2022-07-05T00:23:08;97330.59;;;17.97;97.07
57442;BME280;43284;47.042;15.498;2022-07-05T00:25:36;97334.56;;;17.91;98.26
57442;BME280;43284;47.042;15.498;2022-07-05T00:28:04;97333.94;;;17.87;98.51
57442;BME280;43284;47.042;15.498;2022-07-05T00:30:31;97339.13;;;17.89;97.33
57442;BME280;43284;47.042;15.498;2022-07-05T00:32:58;97337.56;;;17.86;98.50
57442;BME280;43284;47.042;15.498;2022-07-05T00:35:25;97344.03;;;17.82;98.49
57442;BME280;43284;47.042;15.498;2022-07-05T00:37:52;97352.69;;;17.84;98.90
57442;BME280;43284;47.042;15.498;2022-07-05T00:40:19;97357.63;;;17.89;100.00
57442;BME280;43284;47.042;15.498;2022-07-05T00:42:47;97369.88;;;17.90;100.00
57442;BME280;43284;47.042;15.498;2022-07-05T00:45:14;97383.84;;;17.92;100.00
57442;BME280;43284;47.042;15.498;2022-07-05T00:47:42;97382.63;;;17.85;99.50
57442;BME280;43284;47.042;15.498;2022-07-05T00:50:09;97381.91;;;17.83;99.73
57442;BME280;43284;47.042;15.498;2022-07-05T00:52:36;97388.03;;;17.83;100.00
57442;BME280;43284;47.042;15.498;2022-07-05T00:55:04;97378.72;;;17.78;99.49
57442;BME280;43284;47.042;15.498;2022-07-05T00:57:33;97385.19;;;17.74;100.00
57442;BME280;43284;47.042;15.498;2022-07-05T01:00:01;97359.69;;;17.73;100.00
57442;BME280;43284;47.042;15.498;2022-07-05T01:02:29;97342.25;;;17.70;100.00
57442;BME280;43284;47.042;15.498;2022-07-05T01:04:57;97336.34;;;17.66;100.00
57442;BME280;43284;47.042;15.498;2022-07-05T01:07:25;97334.78;;;17.64;100.00
57442;BME280;43284;47.042;15.498;2022-07-05T01:09:53;97344.03;;;17.58;100.00
57442;BME280;43284;47.042;15.498;2022-07-05T01:12:22;97354.38;;;17.61;100.00
57442;BME280;43284;47.042;15.498;2022-07-05T01:14:50;97358.09;;;17.59;100.00
57442;BME280;43284;47.042;15.498;2022-07-05T01:17:18;97366.84;;;17.59;100.00
57442;BME280;43284;47.042;15.498;2022-07-05T01:19:58;97360.16;;;17.66;100.00
57442;BME280;43284;47.042;15.498;2022-07-05T01:22:26;97363.03;;;17.63;100.00
57442;BME280;43284;47.042;15.498;2022-07-05T01:24:55;97368.66;;;17.59;100.00
57442;BME280;43284;47.042;15.498;2022-07-05T01:27:22;97363.47;;;17.57;100.00
57442;BME280;43284;47.042;15.498;2022-07-05T01:29:50;97372.88;;;17.61;100.00
57442;BME280;43284;47.042;15.498;2022-07-05T01:32:17;97395.50;;;17.65;100.00
57442;BME280;43284;47.042;15.498;2022-07-05T01:34:45;97418.84;;;17.71;100.00
57442;BME280;43284;47.042;15.498;2022-07-05T01:37:13;97436.28;;;17.74;100.00
57442;BME280;43284;47.042;15.498;2022-07-05T01:39:41;97435.94;;;17.79;100.00
57442;BME280;43284;47.042;15.498;2022-07-05T01:42:09;97419.09;;;17.80;100.00
57442;BME280;43284;47.042;15.498;2022-07-05T01:44:38;97409.38;;;17.80;100.00
57442;BME280;43284;47.042;15.498;2022-07-05T01:47:06;97412.13;;;17.79;100.00
57442;BME280;43284;47.042;15.498;2022-07-05T01:49:36;97414.78;;;17.79;100.00
57442;BME280;43284;47.042;15.498;2022-07-05T01:52:16;97419.22;;;17.78;100.00
57442;BME280;43284;47.042;15.498;2022-07-05T01:54:47;97413.69;;;17.81;100.00
57442;BME280;43284;47.042;15.498;2022-07-05T01:57:14;97417.00;;;17.85;100.00
57442;BME280;43284;47.042;15.498;2022-07-05T01:59:42;97412.44;;;17.87;100.00
57442;BME280;43284;47.042;15.498;2022-07-05T02:02:09;97410.63;;;17.87;100.00
57442;BME280;43284;47.042;15.498;2022-07-05T02:04:37;97406.09;;;17.89;100.00
57442;BME280;43284;47.042;15.498;2022-07-05T02:07:05;97395.50;;;17.89;100.00
57442;BME280;43284;47.042;15.498;2022-07-05T02:09:32;97390.09;;;17.91;100.00
57442;BME280;43284;47.042;15.498;2022-07-05T02:12:01;97376.88;;;17.91;100.00
57442;BME280;43284;47.042;15.498;2022-07-05T02:14:28;97369.78;;;17.91;100.00
57442;BME280;43284;47.042;15.498;2022-07-05T02:16:55;97359.41;;;17.88;100.00
57442;BME280;43284;47.042;15.498;2022-07-05T02:19:23;97339.97;;;17.89;100.00
57442;BME280;43284;47.042;15.498;2022-07-05T02:21:51;97327.56;;;17.90;100.00
57442;BME280;43284;47.042;15.498;2022-07-05T02:24:20;97304.97;;;17.86;100.00
57442;BME280;43284;47.042;15.498;2022-07-05T02:26:49;97301.59;;;17.84;100.00
57442;BME280;43284;47.042;15.498;2022-07-05T02:29:16;97297.03;;;17.86;100.00
57442;BME280;43284;47.042;15.498;2022-07-05T02:31:44;97287.53;;;17.83;100.00
57442;BME280;43284;47.042;15.498;2022-07-05T02:34:11;97273.47;;;17.83;100.00
57442;BME280;43284;47.042;15.498;2022-07-05T02:36:38;97259.50;;;17.81;100.00
57442;BME280;43284;47.042;15.498;2022-07-05T02:39:06;97249.16;;;17.78;100.00
57442;BME280;43284;47.042;15.498;2022-07-05T02:41:34;97237.97;;;17.74;100.00
57442;BME280;43284;47.042;15.498;2022-07-05T02:44:01;97237.13;;;17.74;99.93
57442;BME280;43284;47.042;15.498;2022-07-05T02:46:28;97236.41;;;17.71;100.00
57442;BME280;43284;47.042;15.498;2022-07-05T02:48:56;97250.44;;;17.72;100.00
57442;BME280;43284;47.042;15.498;2022-07-05T02:51:23;97261.03;;;17.72;100.00
57442;BME280;43284;47.042;15.498;2022-07-05T02:53:50;97276.78;;;17.74;100.00
57442;BME280;43284;47.042;15.498;2022-07-05T02:56:17;97279.28;;;17.75;100.00
57442;BME280;43284;47.042;15.498;2022-07-05T02:58:45;97269.59;;;17.76;100.00
57442;BME280;43284;47.042;15.498;2022-07-05T03:01:15;97271.34;;;17.75;100.00
57442;BME280;43284;47.042;15.498;2022-07-05T03:03:42;97277.63;;;17.74;100.00
57442;BME280;43284;47.042;15.498;2022-07-05T03:06:10;97285.06;;;17.69;100.00
57442;BME280;43284;47.042;15.498;2022-07-05T03:08:38;97286.00;;;17.68;100.00
57442;BME280;43284;47.042;15.498;2022-07-05T03:11:05;97306.44;;;17.66;100.00
57442;BME280;43284;47.042;15.498;2022-07-05T03:13:33;97315.19;;;17.66;100.00
57442;BME280;43284;47.042;15.498;2022-07-05T03:16:00;97309.81;;;17.68;100.00
57442;BME280;43284;47.042;15.498;2022-07-05T03:18:28;97322.09;;;17.69;100.00
57442;BME280;43284;47.042;15.498;2022-07-05T03:20:55;97326.50;;;17.68;100.00
57442;BME280;43284;47.042;15.498;2022-07-05T03:23:22;97334.44;;;17.68;100.00
57442;BME280;43284;47.042;15.498;2022-07-05T03:25:51;97328.22;;;17.69;100.00
57442;BME280;43284;47.042;15.498;2022-07-05T03:28:18;97327.38;;;17.69;100.00
57442;BME280;43284;47.042;15.498;2022-07-05T03:30:46;97334.56;;;17.67;100.00
57442;BME280;43284;47.042;15.498;2022-07-05T03:33:13;97327.47;;;17.67;100.00
57442;BME280;43284;47.042;15.498;2022-07-05T03:35:40;97325.56;;;17.69;100.00
57442;BME280;43284;47.042;15.498;2022-07-05T03:38:08;97326.41;;;17.70;100.00
57442;BME280;43284;47.042;15.498;2022-07-05T03:40:35;97334.44;;;17.68;100.00
57442;BME280;43284;47.042;15.498;2022-07-05T03:43:02;97335.31;;;17.69;100.00
57442;BME280;43284;47.042;15.498;2022-07-05T03:45:29;97336.50;;;17.65;100.00
57442;BME280;43284;47.042;15.498;2022-07-05T03:48:00;97338.50;;;17.61;100.00
57442;BME280;43284;47.042;15.498;2022-07-05T03:50:28;97350.78;;;17.62;100.00
57442;BME280;43284;47.042;15.498;2022-07-05T03:52:55;97351.47;;;17.64;100.00
57442;BME280;43284;47.042;15.498;2022-07-05T03:55:22;97344.63;;;17.62;100.00
57442;BME280;43284;47.042;15.498;2022-07-05T03:57:49;97353.28;;;17.64;100.00
57442;BME280;43284;47.042;15.498;2022-07-05T04:00:17;97347.16;;;17.63;100.00
57442;BME280;43284;47.042;15.498;2022-07-05T04:02:44;97349.56;;;17.66;100.00
57442;BME280;43284;47.042;15.498;2022-07-05T04:05:11;97351.38;;;17.66;100.00
57442;BME280;43284;47.042;15.498;2022-07-05T04:07:49;97353.81;;;17.69;100.00
57442;BME280;43284;47.042;15.498;2022-07-05T04:10:17;97351.28;;;17.67;100.00
57442;BME280;43284;47.042;15.498;2022-07-05T04:12:45;97348.53;;;17.69;100.00
57442;BME280;43284;47.042;15.498;2022-07-05T04:15:13;97350.94;;;17.72;100.00
57442;BME280;43284;47.042;15.498;2022-07-05T04:17:57;97356.22;;;17.72;100.00
57442;BME280;43284;47.042;15.498;2022-07-05T04:20:25;97353.31;;;17.75;100.00
57442;BME280;43284;47.042;15.498;2022-07-05T04:22:52;97349.75;;;17.76;100.00
57442;BME280;43284;47.042;15.498;2022-07-05T04:25:22;97343.38;;;17.79;100.00
57442;BME280;43284;47.042;15.498;2022-07-05T04:27:52;97344.22;;;17.79;100.00
57442;BME280;43284;47.042;15.498;2022-07-05T04:30:22;97346.03;;;17.79;100.00
57442;BME280;43284;47.042;15.498;2022-07-05T04:32:51;97346.75;;;17.81;100.00
57442;BME280;43284;47.042;15.498;2022-07-05T04:35:18;97348.25;;;17.85;100.00
57442;BME280;43284;47.042;15.498;2022-07-05T04:37:46;97350.66;;;17.88;100.00
57442;BME280;43284;47.042;15.498;2022-07-05T04:40:14;97343.44;;;17.90;100.00
57442;BME280;43284;47.042;15.498;2022-07-05T04:42:41;97343.34;;;17.91;100.00
57442;BME280;43284;47.042;15.498;2022-07-05T04:45:09;97341.63;;;17.90;100.00
57442;BME280;43284;47.042;15.498;2022-07-05T04:47:36;97339.00;;;17.90;100.00
57442;BME280;43284;47.042;15.498;2022-07-05T04:50:05;97346.09;;;17.90;100.00
57442;BME280;43284;47.042;15.498;2022-07-05T04:52:33;97336.22;;;17.92;100.00
57442;BME280;43284;47.042;15.498;2022-07-05T04:55:01;97345.88;;;17.93;100.00
57442;BME280;43284;47.042;15.498;2022-07-05T04:57:40;97331.69;;;17.94;100.00
57442;BME280;43284;47.042;15.498;2022-07-05T05:00:12;97340.34;;;17.96;100.00
57442;BME280;43284;47.042;15.498;2022-07-05T05:02:41;97336.50;;;18.00;100.00
57442;BME280;43284;47.042;15.498;2022-07-05T05:05:08;97342.41;;;18.04;100.00
57442;BME280;43284;47.042;15.498;2022-07-05T05:07:37;97338.69;;;18.06;100.00
57442;BME280;43284;47.042;15.498;2022-07-05T05:10:09;97332.31;;;18.09;100.00
57442;BME280;43284;47.042;15.498;2022-07-05T05:12:36;97330.50;;;18.09;100.00
57442;BME280;43284;47.042;15.498;2022-07-05T05:15:04;97327.75;;;18.11;100.00
57442;BME280;43284;47.042;15.498;2022-07-05T05:17:43;97326.66;;;18.14;100.00
57442;BME280;43284;47.042;15.498;2022-07-05T05:20:13;97331.84;;;18.15;100.00
57442;BME280;43284;47.042;15.498;2022-07-05T05:22:42;97327.16;;;18.19;100.00
57442;BME280;43284;47.042;15.498;2022-07-05T05:25:09;97326.06;;;18.21;100.00
57442;BME280;43284;47.042;15.498;2022-07-05T05:27:46;97324.88;;;18.25;100.00
57442;BME280;43284;47.042;15.498;2022-07-05T05:30:14;97326.47;;;18.28;100.00
57442;BME280;43284;47.042;15.498;2022-07-05T05:32:42;97325.13;;;18.33;100.00
57442;BME280;43284;47.042;15.498;2022-07-05T05:35:09;97321.41;;;18.36;100.00
57442;BME280;43284;47.042;15.498;2022-07-05T05:37:50;97324.66;;;18.40;100.00
57442;BME280;43284;47.042;15.498;2022-07-05T05:40:19;97329.59;;;18.44;100.00
57442;BME280;43284;47.042;15.498;2022-07-05T05:42:47;97321.41;;;18.47;100.00
57442;BME280;43284;47.042;15.498;2022-07-05T05:45:15;97328.03;;;18.53;100.00
57442;BME280;43284;47.042;15.498;2022-07-05T05:47:44;97321.44;;;18.59;100.00
57442;BME280;43284;47.042;15.498;2022-07-05T05:50:12;97331.03;;;18.60;100.00
57442;BME280;43284;47.042;15.498;2022-07-05T05:52:39;97325.63;;;18.61;100.00
57442;BME280;43284;47.042;15.498;2022-07-05T05:55:07;97326.00;;;18.68;100.00
57442;BME280;43284;47.042;15.498;2022-07-05T05:57:34;97324.78;;;18.72;100.00
57442;BME280;43284;47.042;15.498;2022-07-05T06:00:04;97327.19;;;18.75;100.00
57442;BME280;43284;47.042;15.498;2022-07-05T06:02:31;97319.88;;;18.79;100.00
57442;BME280;43284;47.042;15.498;2022-07-05T06:05:00;97320.47;;;18.82;100.00
57442;BME280;43284;47.042;15.498;2022-07-05T06:07:27;97332.75;;;18.83;99.31
57442;BME280;43284;47.042;15.498;2022-07-05T06:09:55;97325.75;;;18.82;100.00
57442;BME280;43284;47.042;15.498;2022-07-05T06:12:22;97329.50;;;18.80;99.14
57442;BME280;43284;47.042;15.498;2022-07-05T06:14:50;97329.50;;;18.80;99.63
57442;BME280;43284;47.042;15.498;2022-07-05T06:17:17;97327.47;;;18.83;100.00
57442;BME280;43284;47.042;15.498;2022-07-05T06:19:44;97330.69;;;18.87;99.97
57442;BME280;43284;47.042;15.498;2022-07-05T06:22:11;97335.38;;;18.94;100.00
57442;BME280;43284;47.042;15.498;2022-07-05T06:24:38;97341.91;;;18.90;98.30
57442;BME280;43284;47.042;15.498;2022-07-05T06:27:06;97344.31;;;18.93;97.73
57442;BME280;43284;47.042;15.498;2022-07-05T06:29:34;97350.19;;;18.97;98.51
57442;BME280;43284;47.042;15.498;2022-07-05T06:32:01;97345.13;;;19.05;99.48
57442;BME280;43284;47.042;15.498;2022-07-05T06:34:30;97343.78;;;19.11;99.06
57442;BME280;43284;47.042;15.498;2022-07-05T06:36:58;97351.63;;;19.12;98.62
57442;BME280;43284;47.042;15.498;2022-07-05T06:39:25;97345.22;;;19.15;98.61
57442;BME280;43284;47.042;15.498;2022-07-05T06:41:53;97349.47;;;19.18;98.26
57442;BME280;43284;47.042;15.498;2022-07-05T06:44:20;97352.69;;;19.21;98.54
57442;BME280;43284;47.042;15.498;2022-07-05T06:46:47;97352.06;;;19.29;98.79
57442;BME280;43284;47.042;15.498;2022-07-05T06:49:15;97358.09;;;19.31;97.93
57442;BME280;43284;47.042;15.498;2022-07-05T06:51:43;97351.69;;;19.33;97.57
57442;BME280;43284;47.042;15.498;2022-07-05T06:54:10;97355.66;;;19.39;98.45
57442;BME280;43284;47.042;15.498;2022-07-05T06:56:38;97359.75;;;19.43;97.70
57442;BME280;43284;47.042;15.498;2022-07-05T06:59:06;97356.72;;;19.48;97.26
57442;BME280;43284;47.042;15.498;2022-07-05T07:01:33;97361.41;;;19.55;97.67
57442;BME280;43284;47.042;15.498;2022-07-05T07:04:01;97357.66;;;19.58;97.05
57442;BME280;43284;47.042;15.498;2022-07-05T07:06:28;97360.19;;;19.60;94.98
57442;BME280;43284;47.042;15.498;2022-07-05T07:08:55;97352.69;;;19.65;94.17
57442;BME280;43284;47.042;15.498;2022-07-05T07:11:52;97359.66;;;19.77;95.46
57442;BME280;43284;47.042;15.498;2022-07-05T07:14:19;97355.41;;;19.86;95.70
57442;BME280;43284;47.042;15.498;2022-07-05T07:16:47;97358.41;;;19.92;95.52
57442;BME280;43284;47.042;15.498;2022-07-05T07:19:14;97355.22;;;19.99;94.87
57442;BME280;43284;47.042;15.498;2022-07-05T07:21:42;97355.56;;;20.05;94.85
57442;BME280;43284;47.042;15.498;2022-07-05T07:24:10;97351.09;;;20.06;94.31
57442;BME280;43284;47.042;15.498;2022-07-05T07:26:38;97346.22;;;20.11;94.71
57442;BME280;43284;47.042;15.498;2022-07-05T07:29:34;97352.84;;;20.16;94.75
57442;BME280;43284;47.042;15.498;2022-07-05T07:32:02;97343.50;;;20.22;93.72
57442;BME280;43284;47.042;15.498;2022-07-05T07:34:30;97345.75;;;20.27;93.53
57442;BME280;43284;47.042;15.498;2022-07-05T07:36:57;97357.47;;;20.24;92.82
57442;BME280;43284;47.042;15.498;2022-07-05T07:39:25;97362.34;;;20.19;92.85
57442;BME280;43284;47.042;15.498;2022-07-05T07:41:53;97357.47;;;20.24;93.69
57442;BME280;43284;47.042;15.498;2022-07-05T07:44:21;97361.13;;;20.23;92.84
57442;BME280;43284;47.042;15.498;2022-07-05T07:46:49;97361.34;;;20.20;90.08
57442;BME280;43284;47.042;15.498;2022-07-05T07:49:17;97356.53;;;20.25;91.91
57442;BME280;43284;47.042;15.498;2022-07-05T07:51:44;97353.16;;;20.23;90.91
57442;BME280;43284;47.042;15.498;2022-07-05T07:54:12;97360.22;;;20.34;92.27
57442;BME280;43284;47.042;15.498;2022-07-05T07:56:39;97354.38;;;20.40;91.97
57442;BME280;43284;47.042;15.498;2022-07-05T07:59:07;97343.91;;;20.48;91.72
57442;BME280;43284;47.042;15.498;2022-07-05T08:01:34;97347.16;;;20.52;91.89
57442;BME280;43284;47.042;15.498;2022-07-05T08:04:02;97349.41;;;20.56;91.98
57442;BME280;43284;47.042;15.498;2022-07-05T08:06:29;97352.06;;;20.56;90.96
57442;BME280;43284;47.042;15.498;2022-07-05T08:08:57;97362.59;;;20.58;89.84
57442;BME280;43284;47.042;15.498;2022-07-05T08:11:24;97361.22;;;20.64;89.44
57442;BME280;43284;47.042;15.498;2022-07-05T08:13:51;97357.59;;;20.65;89.08
57442;BME280;43284;47.042;15.498;2022-07-05T08:16:18;97365.06;;;20.71;90.41
57442;BME280;43284;47.042;15.498;2022-07-05T08:18:46;97364.78;;;20.74;90.87
57442;BME280;43284;47.042;15.498;2022-07-05T08:21:32;97369.81;;;20.77;90.64
57442;BME280;43284;47.042;15.498;2022-07-05T08:24:12;97365.78;;;20.83;90.46
57442;BME280;43284;47.042;15.498;2022-07-05T08:26:40;97363.56;;;20.88;90.05
57442;BME280;43284;47.042;15.498;2022-07-05T08:29:10;97368.75;;;20.89;88.95
57442;BME280;43284;47.042;15.498;2022-07-05T08:31:43;97369.63;;;20.99;88.38
57442;BME280;43284;47.042;15.498;2022-07-05T08:34:11;97364.22;;;21.11;87.71
57442;BME280;43284;47.042;15.498;2022-07-05T08:36:39;97362.97;;;21.25;87.36
57442;BME280;43284;47.042;15.498;2022-07-05T08:39:08;97363.16;;;21.33;86.64
57442;BME280;43284;47.042;15.498;2022-07-05T08:41:40;97367.25;;;21.47;86.61
57442;BME280;43284;47.042;15.498;2022-07-05T08:44:09;97364.63;;;21.56;86.51
57442;BME280;43284;47.042;15.498;2022-07-05T08:46:40;97365.63;;;21.65;85.38
57442;BME280;43284;47.042;15.498;2022-07-05T08:49:10;97368.97;;;21.77;84.60
57442;BME280;43284;47.042;15.498;2022-07-05T08:51:38;97370.78;;;21.86;84.18
57442;BME280;43284;47.042;15.498;2022-07-05T08:54:06;97370.38;;;21.91;81.46
57442;BME280;43284;47.042;15.498;2022-07-05T08:56:36;97367.00;;;21.98;80.24
57442;BME280;43284;47.042;15.498;2022-07-05T08:59:03;97369.94;;;22.05;81.16
57442;BME280;43284;47.042;15.498;2022-07-05T09:01:31;97364.59;;;22.15;79.22
57442;BME280;43284;47.042;15.498;2022-07-05T09:04:05;97363.25;;;22.30;81.04
57442;BME280;43284;47.042;15.498;2022-07-05T09:06:37;97361.38;;;22.40;80.45
57442;BME280;43284;47.042;15.498;2022-07-05T09:09:06;97360.81;;;22.47;81.47
57442;BME280;43284;47.042;15.498;2022-07-05T09:11:36;97366.69;;;22.50;79.68
57442;BME280;43284;47.042;15.498;2022-07-05T09:14:06;97367.34;;;22.62;80.53
57442;BME280;43284;47.042;15.498;2022-07-05T09:16:33;97363.53;;;22.74;80.75
57442;BME280;43284;47.042;15.498;2022-07-05T09:19:07;97361.66;;;22.84;76.83
57442;BME280;43284;47.042;15.498;2022-07-05T09:21:35;97361.75;;;22.93;77.87
57442;BME280;43284;47.042;15.498;2022-07-05T09:24:04;97351.94;;;22.93;76.13
57442;BME280;43284;47.042;15.498;2022-07-05T09:26:50;97357.44;;;22.92;78.42
57442;BME280;43284;47.042;15.498;2022-07-05T09:29:20;97364.38;;;22.65;73.61
57442;BME280;43284;47.042;15.498;2022-07-05T09:31:49;97364.50;;;22.73;78.80
57442;BME280;43284;47.042;15.498;2022-07-05T09:34:19;97359.06;;;22.65;74.79
57442;BME280;43284;47.042;15.498;2022-07-05T09:37:01;97363.22;;;22.40;70.07
57442;BME280;43284;47.042;15.498;2022-07-05T09:39:38;97367.66;;;22.59;74.10
57442;BME280;43284;47.042;15.498;2022-07-05T09:42:20;97372.94;;;22.69;70.93
57442;BME280;43284;47.042;15.498;2022-07-05T09:44:58;97362.41;;;22.77;72.83
57442;BME280;43284;47.042;15.498;2022-07-05T09:47:29;97361.19;;;22.61;71.48
57442;BME280;43284;47.042;15.498;2022-07-05T09:49:59;97354.91;;;22.43;70.78
57442;BME280;43284;47.042;15.498;2022-07-05T09:52:39;97368.88;;;22.65;72.54
57442;BME280;43284;47.042;15.498;2022-07-05T09:55:11;97362.84;;;22.62;67.26
57442;BME280;43284;47.042;15.498;2022-07-05T09:57:41;97370.97;;;22.71;69.29
57442;BME280;43284;47.042;15.498;2022-07-05T10:00:17;97356.31;;;22.84;72.76
57442;BME280;43284;47.042;15.498;2022-07-05T10:02:46;97364.28;;;22.94;69.10
57442;BME280;43284;47.042;15.498;2022-07-05T10:05:27;97369.50;;;22.96;68.13
57442;BME280;43284;47.042;15.498;2022-07-05T10:07:57;97363.72;;;22.91;67.19
57442;BME280;43284;47.042;15.498;2022-07-05T10:10:31;97365.25;;;22.93;69.76
57442;BME280;43284;47.042;15.498;2022-07-05T10:13:02;97368.94;;;22.92;67.31
57442;BME280;43284;47.042;15.498;2022-07-05T10:15:34;97366.41;;;23.00;67.39
57442;BME280;43284;47.042;15.498;2022-07-05T10:23:17;97356.13;;;23.06;65.02
57442;BME280;43284;47.042;15.498;2022-07-05T10:25:54;97359.34;;;22.99;63.26
57442;BME280;43284;47.042;15.498;2022-07-05T10:28:25;97355.88;;;23.27;66.54
57442;BME280;43284;47.042;15.498;2022-07-05T10:30:52;97351.31;;;23.37;63.81
57442;BME280;43284;47.042;15.498;2022-07-05T10:33:21;97360.03;;;23.57;64.62
57442;BME280;43284;47.042;15.498;2022-07-05T10:35:53;97354.41;;;23.60;61.45
57442;BME280;43284;47.042;15.498;2022-07-05T10:38:21;97339.22;;;23.60;62.65
57442;BME280;43284;47.042;15.498;2022-07-05T10:40:55;97343.50;;;23.71;61.14
57442;BME280;43284;47.042;15.498;2022-07-05T10:43:25;97340.75;;;23.81;65.76
57442;BME280;43284;47.042;15.498;2022-07-05T10:46:02;97341.31;;;23.84;61.97
57442;BME280;43284;47.042;15.498;2022-07-05T10:48:34;97328.94;;;24.01;62.42
57442;BME280;43284;47.042;15.498;2022-07-05T10:51:15;97334.66;;;24.06;60.72
57442;BME280;43284;47.042;15.498;2022-07-05T10:56:11;97332.72;;;24.17;59.60
57442;BME280;43284;47.042;15.498;2022-07-05T10:58:46;97333.78;;;24.24;59.70
57442;BME280;43284;47.042;15.498;2022-07-05T11:06:39;97331.38;;;24.39;57.64
57442;BME280;43284;47.042;15.498;2022-07-05T11:20:03;97334.44;;;25.13;55.67
57442;BME280;43284;47.042;15.498;2022-07-05T11:22:31;97326.75;;;25.18;54.97
57442;BME280;43284;47.042;15.498;2022-07-05T11:24:59;97326.25;;;25.14;56.09
57442;BME280;43284;47.042;15.498;2022-07-05T11:27:28;97328.88;;;25.32;55.09
57442;BME280;43284;47.042;15.498;2022-07-05T11:29:57;97323.16;;;25.35;55.33
57442;BME280;43284;47.042;15.498;2022-07-05T11:35:13;97333.22;;;25.41;57.00
57442;BME280;43284;47.042;15.498;2022-07-05T11:38:04;97327.88;;;25.58;59.32
57442;BME280;43284;47.042;15.498;2022-07-05T11:40:35;97327.38;;;25.46;54.72
57442;BME280;43284;47.042;15.498;2022-07-05T11:43:05;97318.69;;;25.52;54.76
57442;BME280;43284;47.042;15.498;2022-07-05T11:45:35;97325.72;;;25.53;55.21
57442;BME280;43284;47.042;15.498;2022-07-05T11:48:05;97324.06;;;25.52;54.50
57442;BME280;43284;47.042;15.498;2022-07-05T11:50:35;97320.16;;;25.38;55.43
57442;BME280;43284;47.042;15.498;2022-07-05T11:53:03;97320.28;;;25.20;54.70
57442;BME280;43284;47.042;15.498;2022-07-05T11:55:34;97318.22;;;25.14;57.64
57442;BME280;43284;47.042;15.498;2022-07-05T11:58:10;97307.22;;;25.17;58.05
57442;BME280;43284;47.042;15.498;2022-07-05T12:00:38;97309.31;;;25.48;59.26
57442;BME280;43284;47.042;15.498;2022-07-05T12:03:16;97302.16;;;25.65;53.02
57442;BME280;43284;47.042;15.498;2022-07-05T12:05:44;97290.44;;;25.74;54.09
57442;BME280;43284;47.042;15.498;2022-07-05T12:08:24;97292.13;;;25.92;54.91
57442;BME280;43284;47.042;15.498;2022-07-05T12:10:52;97298.66;;;26.05;54.69
57442;BME280;43284;47.042;15.498;2022-07-05T12:13:49;97291.44;;;26.06;54.72
57442;BME280;43284;47.042;15.498;2022-07-05T12:16:17;97291.44;;;26.14;52.29
57442;BME280;43284;47.042;15.498;2022-07-05T12:18:54;97282.41;;;25.90;51.45
57442;BME280;43284;47.042;15.498;2022-07-05T12:21:22;97287.94;;;25.97;52.20
57442;BME280;43284;47.042;15.498;2022-07-05T12:23:51;97277.88;;;26.16;52.23
57442;BME280;43284;47.042;15.498;2022-07-05T12:26:20;97276.34;;;26.38;47.53
57442;BME280;43284;47.042;15.498;2022-07-05T12:28:52;97281.34;;;26.41;51.69
57442;BME280;43284;47.042;15.498;2022-07-05T12:31:21;97276.34;;;26.38;50.86
57442;BME280;43284;47.042;15.498;2022-07-05T12:33:50;97277.81;;;26.40;48.18
57442;BME280;43284;47.042;15.498;2022-07-05T12:36:19;97277.00;;;26.31;46.59
57442;BME280;43284;47.042;15.498;2022-07-05T12:38:47;97267.31;;;26.22;48.00
57442;BME280;43284;47.042;15.498;2022-07-05T12:41:23;97260.94;;;26.23;46.38
57442;BME280;43284;47.042;15.498;2022-07-05T12:43:55;97270.13;;;26.37;48.03
57442;BME280;43284;47.042;15.498;2022-07-05T12:46:41;97267.88;;;26.65;48.57
57442;BME280;43284;47.042;15.498;2022-07-05T12:49:11;97267.34;;;26.78;47.24
57442;BME280;43284;47.042;15.498;2022-07-05T12:51:40;97270.66;;;26.88;45.11
57442;BME280;43284;47.042;15.498;2022-07-05T12:54:22;97270.28;;;26.91;46.63
57442;BME280;43284;47.042;15.498;2022-07-05T12:57:08;97271.50;;;27.20;46.82
57442;BME280;43284;47.042;15.498;2022-07-05T13:00:06;97264.72;;;27.32;45.67
57442;BME280;43284;47.042;15.498;2022-07-05T13:02:42;97269.94;;;27.34;47.01
57442;BME280;43284;47.042;15.498;2022-07-05T13:05:23;97262.06;;;27.56;45.76
57442;BME280;43284;47.042;15.498;2022-07-05T13:07:52;97267.34;;;27.64;43.34
57442;BME280;43284;47.042;15.498;2022-07-05T13:10:22;97279.75;;;27.42;44.09
57442;BME280;43284;47.042;15.498;2022-07-05T13:12:51;97266.88;;;27.37;44.65
57442;BME280;43284;47.042;15.498;2022-07-05T13:15:19;97283.44;;;27.49;44.02
57442;BME280;43284;47.042;15.498;2022-07-05T13:17:46;97265.88;;;27.61;45.10
57442;BME280;43284;47.042;15.498;2022-07-05T13:20:15;97269.75;;;27.59;43.09
57442;BME280;43284;47.042;15.498;2022-07-05T13:22:44;97268.69;;;27.91;43.54
57442;BME280;43284;47.042;15.498;2022-07-05T13:25:12;97270.94;;;28.02;43.10